Time;durP1;ratioP1;P1;durP2;ratioP2;P2;SDS_P1;SDS_P2;PMS_P1;PMS_P2;Temp;Humidity;BMP_temperature;BMP_pressure;BME280_temperature;BME280_humidity;BME280_pressure;Samples;Min_cycle;Max_cycle;Signal;HPM_P1;HPM_P2
2022/05/20 00:00:34;;;;;;;1.67;1.20;;;;;;;25.65;49.06;99865.31;5071198;28;20444;-80
2022/05/20 00:03:00;;;;;;;2.30;1.70;;;;;;;25.63;48.57;99857.28;5071663;28;20045;-80
2022/05/20 00:05:27;;;;;;;2.45;1.60;;;;;;;25.64;48.70;99858.88;5071665;28;20046;-80
2022/05/20 00:07:54;;;;;;;2.20;1.63;;;;;;;25.63;48.94;99854.50;5071337;28;20041;-80
2022/05/20 00:10:19;;;;;;;2.40;1.50;;;;;;;25.63;48.38;99857.28;5071950;28;20531;-80
2022/05/20 00:12:46;;;;;;;2.20;1.60;;;;;;;25.61;48.72;99862.50;5071909;28;20123;-80
2022/05/20 00:15:14;;;;;;;1.70;1.27;;;;;;;25.61;48.70;99854.09;5077162;28;20044;-80
2022/05/20 00:17:40;;;;;;;2.30;1.60;;;;;;;25.60;48.62;99863.69;5079929;28;20036;-80
2022/05/20 00:20:07;;;;;;;2.35;1.58;;;;;;;25.58;47.99;99856.91;5080472;28;20079;-80
2022/05/20 00:22:32;;;;;;;2.13;1.60;;;;;;;25.60;48.41;99860.09;5076744;28;20048;-80
2022/05/20 00:27:42;;;;;;;2.50;1.63;;;;;;;25.59;48.14;99862.09;5071152;28;20051;-80
2022/05/20 00:30:08;;;;;;;2.17;1.50;;;;;;;25.59;48.24;99873.31;5071276;28;20045;-80
2022/05/20 00:32:34;;;;;;;2.20;1.60;;;;;;;25.57;48.21;99863.69;5071159;28;20044;-80
2022/05/20 00:34:59;;;;;;;2.50;1.30;;;;;;;25.58;48.14;99868.91;5053230;28;20386;-80
2022/05/20 00:37:25;;;;;;;2.10;1.40;;;;;;;25.57;47.98;99878.47;5052324;28;20053;-80
2022/05/20 00:39:50;;;;;;;1.95;1.30;;;;;;;25.56;48.07;99864.88;5051251;28;20272;-78
2022/05/20 00:42:18;;;;;;;3.70;1.70;;;;;;;25.52;48.06;99870.47;5070956;28;20416;-80
2022/05/20 00:44:44;;;;;;;2.13;1.40;;;;;;;25.57;48.04;99880.47;5070840;28;20053;-81
2022/05/20 00:47:12;;;;;;;2.08;1.38;;;;;;;25.56;47.82;99876.88;5051914;28;20473;-79
2022/05/20 00:49:40;;;;;;;2.20;1.52;;;;;;;25.55;47.43;99886.50;5052637;28;20044;-80
2022/05/20 00:52:10;;;;;;;2.10;1.48;;;;;;;25.52;47.59;99884.50;5070993;28;20075;-81
2022/05/20 00:54:40;;;;;;;1.88;1.30;;;;;;;25.53;47.59;99875.69;5070699;28;20091;-80
2022/05/20 00:57:05;;;;;;;2.33;1.30;;;;;;;25.55;47.41;99883.69;5070856;28;20048;-80
2022/05/20 00:59:33;;;;;;;1.88;1.20;;;;;;;25.53;47.53;99886.88;5051858;28;20047;-80
2022/05/20 01:02:06;;;;;;;1.90;1.20;;;;;;;25.52;47.25;99884.50;5070596;28;20384;-80
2022/05/20 01:04:32;;;;;;;1.95;1.30;;;;;;;25.51;47.39;99874.50;5070675;28;20056;-80
2022/05/20 01:06:59;;;;;;;2.25;1.50;;;;;;;25.52;47.11;99890.09;5066292;28;20063;-81
2022/05/20 01:09:24;;;;;;;2.00;1.30;;;;;;;25.51;47.12;99885.69;5050554;28;20049;-70
2022/05/20 01:11:50;;;;;;;2.42;1.23;;;;;;;25.51;47.03;99885.69;5032696;28;20044;-70
2022/05/20 01:14:21;;;;;;;2.30;1.45;;;;;;;25.48;47.06;99887.25;5050672;28;20068;-70
2022/05/20 01:16:46;;;;;;;1.60;1.15;;;;;;;25.50;46.87;99904.50;5032294;28;20076;-70
2022/05/20 01:19:19;;;;;;;1.65;1.13;;;;;;;25.48;46.56;99895.66;5050152;28;20452;-70
2022/05/20 01:21:45;;;;;;;1.30;1.00;;;;;;;25.49;46.69;99897.25;5050054;28;20596;-70
2022/05/20 01:24:10;;;;;;;1.98;1.25;;;;;;;25.45;46.35;99882.47;5050285;28;20132;-70
2022/05/20 01:26:35;;;;;;;2.00;1.40;;;;;;;25.48;46.29;99894.88;5050487;28;20037;-70
2022/05/20 01:29:01;;;;;;;1.70;1.10;;;;;;;25.46;46.51;99891.66;5032334;28;20049;-70
2022/05/20 01:31:26;;;;;;;1.83;1.20;;;;;;;25.45;46.25;99890.88;5050265;28;20045;-70
2022/05/20 01:33:52;;;;;;;1.80;1.17;;;;;;;25.46;46.18;99894.47;5032435;28;20145;-70
2022/05/20 01:36:20;;;;;;;1.67;1.13;;;;;;;25.43;45.97;99889.63;5050173;28;20060;-70
2022/05/20 01:38:47;;;;;;;1.73;1.20;;;;;;;25.45;45.99;99890.06;5050019;28;20130;-70
2022/05/20 01:41:27;;;;;;;2.88;1.27;;;;;;;25.41;46.03;99878.03;5049568;28;20049;-70
2022/05/20 01:44:17;;;;;;;2.10;1.38;;;;;;;25.42;45.98;99886.03;5031944;28;20043;-70
2022/05/20 01:47:01;;;;;;;1.98;1.10;;;;;;;25.39;46.04;99886.03;5029526;28;20053;-70
2022/05/20 01:49:47;;;;;;;1.38;1.08;;;;;;;25.39;45.64;99886.03;5049487;28;20504;-70
2022/05/20 01:52:17;;;;;;;1.63;1.15;;;;;;;25.39;45.82;99888.84;5030700;28;20521;-70
2022/05/20 01:55:01;;;;;;;1.50;1.10;;;;;;;25.38;45.62;99882.44;5048632;28;20124;-70
2022/05/20 01:57:37;;;;;;;1.77;1.20;;;;;;;25.39;45.49;99886.03;5031833;28;20075;-70
2022/05/20 02:00:06;;;;;;;2.10;1.30;;;;;;;25.37;45.52;99888.44;5031413;28;20046;-70
2022/05/20 02:02:38;;;;;;;3.85;1.20;;;;;;;25.34;45.48;99892.81;5031502;28;20171;-70
2022/05/20 02:05:12;;;;;;;2.00;1.23;;;;;;;25.35;45.51;99886.00;5030770;28;20041;-81
2022/05/20 02:07:42;;;;;;;1.88;1.10;;;;;;;25.36;45.06;99881.22;5049495;28;20049;-81
2022/05/20 02:10:34;;;;;;;1.63;1.05;;;;;;;25.32;45.22;99884.03;5049108;28;20127;-80
2022/05/20 02:13:02;;;;;;;1.58;1.10;;;;;;;25.35;45.16;99885.22;5044903;28;20053;-80
2022/05/20 02:15:38;;;;;;;1.85;1.30;;;;;;;25.34;44.92;99892.81;5048902;28;20037;-80
2022/05/20 02:18:07;;;;;;;2.33;1.30;;;;;;;25.33;45.26;99893.22;5049637;28;20044;-81
2022/05/20 02:20:38;;;;;;;1.52;1.05;;;;;;;25.33;45.08;99888.41;5049392;28;20551;-81
2022/05/20 02:23:07;;;;;;;1.20;0.98;;;;;;;25.33;45.06;99890.41;5049339;28;20548;-80
2022/05/20 02:25:40;;;;;;;1.60;1.10;;;;;;;25.30;45.11;99888.41;5049364;28;20465;-81
2022/05/20 02:28:17;;;;;;;1.40;1.00;;;;;;;25.30;44.94;99877.22;5049371;28;20447;-81
2022/05/20 02:30:44;;;;;;;1.63;1.00;;;;;;;25.30;44.78;99877.22;5031547;28;20037;-70
2022/05/20 02:33:22;;;;;;;1.40;1.00;;;;;;;25.29;44.92;99890.41;5049418;28;20560;-70
2022/05/20 02:35:48;;;;;;;1.80;1.20;;;;;;;25.31;45.20;99890.03;5047836;28;20147;-70
2022/05/20 02:38:17;;;;;;;1.73;1.05;;;;;;;25.30;45.22;99888.41;5049396;28;20584;-70
2022/05/20 02:40:45;;;;;;;1.75;1.20;;;;;;;25.25;45.25;99876.38;5049115;28;20106;-80
2022/05/20 02:43:12;;;;;;;1.80;1.08;;;;;;;25.27;45.21;99886.38;5049072;28;20505;-80
2022/05/20 02:45:39;;;;;;;1.63;1.10;;;;;;;25.25;45.02;99881.19;5048882;28;20073;-80
2022/05/20 02:48:06;;;;;;;1.77;1.10;;;;;;;25.25;45.17;99884.78;5049146;28;20049;-81
2022/05/20 02:50:31;;;;;;;1.80;1.17;;;;;;;25.26;45.01;99877.19;5049067;28;20168;-81
2022/05/20 02:52:58;;;;;;;1.38;0.98;;;;;;;25.26;45.17;99882.78;5049206;28;20124;-80
2022/05/20 02:55:23;;;;;;;1.60;1.10;;;;;;;25.24;45.04;99879.59;5049082;28;20037;-81
2022/05/20 02:57:49;;;;;;;1.85;1.10;;;;;;;25.25;45.01;99876.38;5049094;28;20045;-81
2022/05/20 03:05:43;;;;;;;1.95;1.23;;;;;;;25.26;44.82;99877.19;5048907;28;20535;-80
2022/05/20 03:08:09;;;;;;;1.85;1.10;;;;;;;25.23;45.08;99870.38;5048880;28;20132;-81
2022/05/20 03:10:34;;;;;;;1.67;1.10;;;;;;;25.20;45.08;99873.97;5048866;28;20489;-81
2022/05/20 03:13:03;;;;;;;1.75;1.10;;;;;;;25.24;44.78;99874.00;5048953;28;20099;-80
2022/05/20 03:15:28;;;;;;;1.70;1.00;;;;;;;25.23;45.07;99872.41;5048861;28;20041;-80
2022/05/20 03:17:54;;;;;;;2.20;1.20;;;;;;;25.22;45.00;99877.19;5030737;28;20239;-80
2022/05/20 03:20:20;;;;;;;1.55;0.88;;;;;;;25.21;44.87;99874.75;5049177;28;20588;-80
2022/05/20 03:22:46;;;;;;;1.60;1.10;;;;;;;25.18;44.85;99865.16;5050639;28;20041;-79
2022/05/20 03:25:11;;;;;;;2.47;1.33;;;;;;;25.19;45.02;99866.75;5052191;28;20044;-80
2022/05/20 03:27:37;;;;;;;1.48;1.00;;;;;;;25.22;44.99;99868.78;5052188;28;20064;-80
2022/05/20 03:30:08;;;;;;;2.00;1.17;;;;;;;25.19;44.82;99880.75;5051936;28;20052;-70
2022/05/20 03:32:33;;;;;;;2.05;1.30;;;;;;;25.18;44.78;99873.56;5051952;28;20049;-70
2022/05/20 03:34:59;;;;;;;1.52;1.00;;;;;;;25.19;45.03;99874.34;5052152;28;20048;-70
2022/05/20 03:37:24;;;;;;;1.45;1.00;;;;;;;25.19;44.94;99863.97;5052129;28;20134;-70
2022/05/20 03:39:55;;;;;;;2.00;1.20;;;;;;;25.19;44.66;99865.97;5034201;28;20091;-70
2022/05/20 03:42:21;;;;;;;1.40;1.00;;;;;;;25.17;44.69;99871.97;5052012;28;20049;-70
2022/05/20 03:44:47;;;;;;;2.00;1.20;;;;;;;25.17;44.99;99869.16;5051828;28;20072;-70
2022/05/20 03:47:12;;;;;;;1.70;1.20;;;;;;;25.17;44.96;99863.56;5033879;28;20413;-70
2022/05/20 03:49:40;;;;;;;1.70;1.20;;;;;;;25.15;45.09;99865.16;5033731;28;20052;-70
2022/05/20 03:52:06;;;;;;;1.70;1.20;;;;;;;25.14;45.21;99855.94;5051581;28;20088;-70
2022/05/20 03:54:32;;;;;;;1.40;0.90;;;;;;;25.16;45.08;99866.75;5033595;28;20044;-70
2022/05/20 03:56:59;;;;;;;1.33;1.00;;;;;;;25.16;44.89;99866.75;5051572;28;20044;-70
2022/05/20 03:59:25;;;;;;;1.52;1.00;;;;;;;25.16;45.14;99873.16;5051988;28;20501;-70
2022/05/20 04:01:57;;;;;;;1.85;1.20;;;;;;;25.15;45.31;99871.56;5052028;28;20091;-70
2022/05/20 04:04:31;;;;;;;1.77;1.08;;;;;;;25.15;45.26;99860.38;5051829;28;20073;-70
2022/05/20 04:06:58;;;;;;;1.88;1.10;;;;;;;25.14;45.23;99852.34;5051818;28;20043;-70
2022/05/20 04:09:23;;;;;;;1.63;1.20;;;;;;;25.13;45.01;99867.53;5051389;28;20049;-70
2022/05/20 04:11:52;;;;;;;1.75;1.20;;;;;;;25.14;45.26;99863.53;5051258;28;20114;-70
2022/05/20 04:14:17;;;;;;;1.40;1.00;;;;;;;25.09;45.02;99850.75;5051625;28;20428;-70
2022/05/20 04:16:43;;;;;;;1.70;1.00;;;;;;;25.09;45.17;99852.75;5051368;28;20037;-70
2022/05/20 04:19:08;;;;;;;1.58;1.10;;;;;;;25.08;45.47;99845.53;5051382;28;20059;-70
2022/05/20 04:21:34;;;;;;;1.50;1.10;;;;;;;25.09;45.18;99856.34;5051525;28;20607;-70
2022/05/20 04:23:59;;;;;;;1.77;1.00;;;;;;;25.08;45.42;99857.53;5033584;28;20052;-70
2022/05/20 04:26:24;;;;;;;1.35;0.90;;;;;;;25.05;45.21;99860.31;5033234;28;20052;-70
2022/05/20 04:28:50;;;;;;;1.48;1.13;;;;;;;25.07;45.37;99869.09;5033174;28;20055;-70
2022/05/20 04:31:15;;;;;;;1.63;1.10;;;;;;;25.06;45.49;99857.09;5033308;28;20059;-70
2022/05/20 04:33:40;;;;;;;1.63;0.98;;;;;;;25.09;45.23;99861.13;5032860;28;20090;-70
2022/05/20 04:36:07;;;;;;;2.30;1.30;;;;;;;25.09;45.36;99861.94;5033160;28;20128;-70
2022/05/20 04:38:32;;;;;;;1.63;1.13;;;;;;;25.10;45.58;99882.31;5033306;28;20045;-70
2022/05/20 04:49:11;;;;;;;2.08;1.20;;;;;;;25.08;45.48;99860.34;5050988;28;20488;-70
2022/05/20 04:51:38;;;;;;;1.73;1.20;;;;;;;25.08;45.35;99870.72;5032654;28;20544;-70
2022/05/20 04:56:49;;;;;;;1.75;1.10;;;;;;;25.12;45.62;99871.53;5050994;28;20132;-81
2022/05/20 04:59:15;;;;;;;1.48;1.00;;;;;;;25.11;45.75;99884.72;5050381;28;20147;-81
2022/05/20 05:01:41;;;;;;;1.70;1.20;;;;;;;25.09;45.57;99878.72;5050751;28;20501;-81
2022/05/20 05:04:07;;;;;;;1.80;1.30;;;;;;;25.09;45.88;99881.53;5032980;28;20041;-81
2022/05/20 05:06:32;;;;;;;1.80;1.17;;;;;;;25.10;45.72;99896.31;5050731;28;20072;-81
2022/05/20 05:08:58;;;;;;;1.73;1.20;;;;;;;25.10;45.83;99891.53;5050675;28;20090;-80
2022/05/20 05:11:23;;;;;;;1.40;0.98;;;;;;;25.08;45.85;99895.91;5032944;28;20052;-80
2022/05/20 05:13:49;;;;;;;2.13;1.20;;;;;;;25.08;45.73;99893.13;5032854;28;20128;-80
2022/05/20 05:16:14;;;;;;;1.75;1.20;;;;;;;25.09;45.79;99889.94;5032703;28;20045;-80
2022/05/20 05:18:39;;;;;;;1.70;1.10;;;;;;;25.10;45.85;99899.94;5032401;28;20037;-80
2022/05/20 05:21:05;;;;;;;1.77;1.00;;;;;;;25.09;45.77;99894.72;5050677;28;20037;-80
2022/05/20 05:23:31;;;;;;;1.73;1.30;;;;;;;25.10;45.96;99896.31;5050583;28;20056;-80
2022/05/20 05:25:57;;;;;;;2.05;1.13;;;;;;;25.12;45.86;99894.72;5058094;28;20056;-80
2022/05/20 05:28:23;;;;;;;2.20;1.20;;;;;;;25.13;45.83;99895.53;5058794;28;20397;-80
2022/05/20 05:30:51;;;;;;;1.90;1.15;;;;;;;25.14;45.93;99902.72;5040625;28;20087;-71
2022/05/20 05:33:18;;;;;;;2.33;1.27;;;;;;;25.13;46.14;99893.53;5052537;28;20049;-73
2022/05/20 05:35:43;;;;;;;2.58;1.30;;;;;;;25.16;46.24;99886.34;5050482;28;20128;-84
2022/05/20 05:38:09;;;;;;;4.40;1.30;;;;;;;25.14;46.13;99895.13;5050522;28;20124;-87
2022/05/20 05:40:34;;;;;;;1.52;1.10;;;;;;;25.17;46.34;99901.97;5050067;28;20041;-87
2022/05/20 05:43:01;;;;;;;1.90;1.10;;;;;;;25.19;46.20;99911.56;5050653;28;20033;-86
2022/05/20 05:45:29;;;;;;;2.03;1.30;;;;;;;25.18;45.94;99907.16;5049878;28;20519;-85
2022/05/20 05:47:59;;;;;;;1.98;1.20;;;;;;;25.20;45.97;99910.34;5032707;28;20082;-85
2022/05/20 05:50:27;;;;;;;2.40;1.10;;;;;;;25.20;45.87;99906.75;5032791;28;20072;-87
2022/05/20 05:52:57;;;;;;;2.67;1.30;;;;;;;25.21;46.07;99900.75;5032744;28;20090;-86
2022/05/20 05:55:23;;;;;;;1.95;1.30;;;;;;;25.20;45.93;99901.97;5032679;28;20068;-87
2022/05/20 05:57:48;;;;;;;2.55;1.52;;;;;;;25.21;45.71;99902.75;5050283;28;20134;-87
2022/05/20 06:00:14;;;;;;;3.55;1.20;;;;;;;25.21;45.74;99897.97;5050143;28;20055;-86
2022/05/20 06:02:40;;;;;;;4.43;1.20;;;;;;;25.20;47.12;99901.97;5050137;28;20059;-86
2022/05/20 06:05:05;;;;;;;1.90;1.20;;;;;;;25.15;47.72;99899.56;5031855;28;20049;-87
2022/05/20 06:07:31;;;;;;;1.50;1.10;;;;;;;25.15;47.90;99898.75;5032204;28;20120;-85
2022/05/20 06:09:56;;;;;;;3.60;1.30;;;;;;;25.19;47.96;99891.97;5050094;28;20113;-86
2022/05/20 06:12:21;;;;;;;2.08;1.25;;;;;;;25.31;47.52;99898.41;5032416;28;20382;-86
2022/05/20 06:14:47;;;;;;;1.60;1.10;;;;;;;25.33;47.76;99902.41;5049942;28;20547;-87
2022/05/20 06:17:13;;;;;;;1.98;1.20;;;;;;;25.30;47.98;99894.81;5032240;28;20135;-87
2022/05/20 06:19:40;;;;;;;1.80;1.13;;;;;;;25.37;47.62;99896.84;5049715;28;20049;-85
2022/05/20 06:22:06;;;;;;;2.53;1.05;;;;;;;25.42;47.69;99900.03;5031743;28;20053;-88
2022/05/20 06:24:32;;;;;;;1.90;1.23;;;;;;;25.45;47.67;99898.47;5032235;28;20464;-86
2022/05/20 06:26:57;;;;;;;2.22;1.15;;;;;;;25.37;47.89;99891.25;5054977;28;20072;-88
2022/05/20 06:29:23;;;;;;;5.65;1.38;;;;;;;25.43;47.72;99900.84;5056021;28;20080;-85
2022/05/20 06:31:48;;;;;;;3.75;1.30;;;;;;;25.44;47.86;99902.47;5069501;28;20173;-87
2022/05/20 06:34:13;;;;;;;2.53;1.20;;;;;;;25.50;47.49;99898.06;5054233;28;20044;-87
2022/05/20 06:39:49;;;;;;;4.25;1.30;;;;;;;25.57;47.32;99891.69;5068358;28;20555;-85
2022/05/20 06:42:15;;;;;;;3.67;1.42;;;;;;;25.59;47.54;99895.72;5062897;28;20570;-74
2022/05/20 06:44:41;;;;;;;1.52;1.10;;;;;;;25.64;47.21;99891.72;5054232;28;20523;-72
2022/05/20 06:47:07;;;;;;;1.80;1.20;;;;;;;25.66;47.19;99892.94;5053115;28;20068;-74
2022/05/20 06:49:32;;;;;;;4.72;1.10;;;;;;;25.67;47.47;99894.53;5067228;28;20397;-74
2022/05/20 06:52:00;;;;;;;2.85;1.40;;;;;;;25.67;47.25;99888.94;5068293;28;20158;-74
2022/05/20 06:54:26;;;;;;;3.38;1.25;;;;;;;25.61;47.65;99890.50;5062632;28;20041;-73
2022/05/20 06:56:52;;;;;;;2.80;1.35;;;;;;;25.67;47.45;99891.72;5055761;28;20049;-74
2022/05/20 06:59:17;;;;;;;2.55;1.40;;;;;;;25.71;47.24;99889.72;5050466;28;20124;-74
2022/05/20 07:01:42;;;;;;;2.78;1.33;;;;;;;25.65;46.38;99884.94;5066661;28;20033;-74
2022/05/20 07:04:08;;;;;;;3.97;1.50;;;;;;;25.67;46.59;99886.13;5059027;28;20033;-74
2022/05/20 07:06:34;;;;;;;1.80;1.30;;;;;;;25.70;46.38;99879.72;5039845;28;20044;-74
2022/05/20 07:09:00;;;;;;;3.63;1.38;;;;;;;25.79;46.32;99877.38;5054817;28;20428;-74
2022/05/20 07:11:27;;;;;;;3.15;1.40;;;;;;;25.83;45.57;99871.78;5056367;28;20114;-75
2022/05/20 07:13:55;;;;;;;2.90;1.20;;;;;;;25.82;45.77;99874.97;5057957;28;20041;-75
2022/05/20 07:16:23;;;;;;;2.38;1.40;;;;;;;25.81;45.80;99873.38;5055778;28;20064;-75
2022/05/20 07:18:49;;;;;;;2.13;1.10;;;;;;;25.83;45.52;99863.38;5062807;28;20049;-64
2022/05/20 07:21:15;;;;;;;2.10;1.20;;;;;;;25.83;45.76;99866.16;5060902;28;20094;-63
2022/05/20 07:23:40;;;;;;;2.60;1.33;;;;;;;25.86;45.47;99858.94;5053729;28;20068;-64
2022/05/20 07:26:06;;;;;;;1.80;1.20;;;;;;;25.88;45.23;99867.78;5051998;28;20032;-64
2022/05/20 07:28:32;;;;;;;2.20;1.30;;;;;;;25.83;45.62;99856.97;5064561;28;20503;-64
2022/05/20 07:30:58;;;;;;;1.65;1.05;;;;;;;25.89;45.23;99858.16;5065436;28;20508;-64
2022/05/20 07:33:23;;;;;;;1.60;1.02;;;;;;;25.92;45.08;99862.97;5056965;28;20699;-64
2022/05/20 07:35:49;;;;;;;2.25;1.23;;;;;;;25.92;44.83;99855.34;5061786;28;20060;-64
2022/05/20 07:38:15;;;;;;;2.28;1.00;;;;;;;25.95;44.35;99862.19;5062844;28;20051;-65
2022/05/20 07:40:43;;;;;;;1.73;1.05;;;;;;;25.95;44.50;99856.59;5066592;28;20542;-64
2022/05/20 07:43:09;;;;;;;2.33;1.10;;;;;;;25.95;44.53;99854.56;5061611;28;20048;-64
2022/05/20 07:45:35;;;;;;;2.05;1.13;;;;;;;25.94;44.92;99852.19;5064539;28;20492;-64
2022/05/20 07:48:00;;;;;;;1.55;0.90;;;;;;;25.96;44.64;99847.75;5060637;28;20153;-64
2022/05/20 07:50:26;;;;;;;1.92;1.05;;;;;;;25.99;44.41;99851.75;5066870;28;20108;-74
2022/05/20 07:55:41;;;;;;;1.73;1.00;;;;;;;26.03;44.19;99835.75;5064924;28;20094;-64
2022/05/20 07:58:13;;;;;;;1.50;1.00;;;;;;;26.03;44.10;99836.56;5061930;28;20049;-64
2022/05/20 08:00:39;;;;;;;2.60;1.23;;;;;;;26.06;44.16;99827.34;5062804;28;20049;-64
2022/05/20 08:03:07;;;;;;;1.63;0.95;;;;;;;26.09;43.88;99828.56;5064209;28;20056;-64
2022/05/20 08:05:35;;;;;;;2.08;1.00;;;;;;;26.09;44.05;99820.13;5058495;28;20110;-64
2022/05/20 08:08:04;;;;;;;1.95;1.00;;;;;;;26.09;43.59;99817.34;5056339;28;20392;-64
2022/05/20 08:10:33;;;;;;;2.22;1.00;;;;;;;26.13;43.69;99815.31;5064422;28;20044;-64
2022/05/20 08:12:59;;;;;;;1.42;1.00;;;;;;;26.14;43.61;99805.69;5046763;28;20568;-64
2022/05/20 08:15:26;;;;;;;1.35;0.85;;;;;;;26.15;43.70;99810.13;5061004;28;20046;-64
2022/05/20 08:17:51;;;;;;;1.45;0.98;;;;;;;26.17;43.69;99807.72;5064947;28;20037;-64
2022/05/20 08:20:25;;;;;;;1.75;1.10;;;;;;;26.11;43.52;99806.50;5058557;28;20032;-64
2022/05/20 08:22:55;;;;;;;1.98;1.20;;;;;;;26.10;43.47;99792.91;5067765;28;20059;-64
2022/05/20 08:25:22;;;;;;;2.08;1.08;;;;;;;26.11;42.91;99791.69;5069003;28;20416;-64
2022/05/20 08:27:47;;;;;;;2.80;1.40;;;;;;;26.10;43.12;99792.91;5066608;28;20419;-64
2022/05/20 08:30:25;;;;;;;1.70;1.00;;;;;;;26.17;42.42;99790.88;5067745;28;20051;-65
2022/05/20 08:32:51;;;;;;;1.80;1.10;;;;;;;26.19;42.30;99788.47;5064964;28;20102;-64
2022/05/20 08:35:18;;;;;;;1.67;1.00;;;;;;;26.18;42.09;99780.47;5064301;28;20480;-64
2022/05/20 08:37:46;;;;;;;1.30;0.82;;;;;;;26.19;42.08;99779.28;5056590;28;20477;-65
2022/05/20 08:40:17;;;;;;;2.00;1.02;;;;;;;26.24;42.75;99785.28;5046611;28;20083;-64
2022/05/20 08:42:43;;;;;;;1.23;0.90;;;;;;;26.24;42.24;99771.25;5066391;28;20045;-64
2022/05/20 08:45:20;;;;;;;1.88;1.00;;;;;;;26.24;41.86;99765.66;5069379;28;20082;-65
2022/05/20 08:47:48;;;;;;;1.60;0.98;;;;;;;26.31;41.80;99753.63;5061915;28;20051;-65
2022/05/20 08:50:50;;;;;;;4.80;0.95;;;;;;;26.24;41.80;99759.25;5062476;28;20059;-65
2022/05/20 08:53:23;;;;;;;0.75;0.73;;;;;;;26.28;41.37;99757.22;5031146;28;20411;-70
2022/05/20 08:55:48;;;;;;;1.85;0.90;;;;;;;26.28;41.13;99752.41;5064074;28;20511;-81
2022/05/20 08:58:21;;;;;;;2.97;0.98;;;;;;;26.35;41.06;99743.97;5049789;28;20052;-80
2022/05/20 09:00:47;;;;;;;1.20;0.80;;;;;;;26.36;41.21;99744.75;5054765;28;20920;-81
2022/05/20 09:03:13;;;;;;;1.38;0.90;;;;;;;26.30;40.94;99732.38;5055373;28;20029;-81
2022/05/20 09:05:42;;;;;;;3.15;0.85;;;;;;;26.33;40.41;99732.34;5044160;28;20052;-82
2022/05/20 09:08:17;;;;;;;1.35;0.80;;;;;;;26.37;40.57;99751.19;5041572;28;20139;-83
2022/05/20 09:10:49;;;;;;;1.67;0.95;;;;;;;26.39;40.56;99721.56;5058395;28;20199;-82
2022/05/20 09:16:25;;;;;;;3.72;1.00;;;;;;;26.44;40.68;99725.97;5058541;28;20047;-74
2022/05/20 09:19:14;;;;;;;3.00;1.20;;;;;;;26.38;39.30;99714.31;5057067;28;20096;-75
2022/05/20 09:21:58;;;;;;;3.28;1.20;;;;;;;26.42;38.96;99711.53;5057708;28;20123;-81
2022/05/20 09:24:25;;;;;;;5.25;1.65;;;;;;;26.48;38.84;99715.50;5058722;28;20055;-76
2022/05/20 09:27:01;;;;;;;7.80;1.30;;;;;;;26.50;39.32;99715.91;5063804;28;20052;-67
2022/05/20 09:29:31;;;;;;;4.82;1.42;;;;;;;26.49;39.22;99711.50;5064042;28;20110;-77
2022/05/20 09:32:01;;;;;;;6.05;2.42;;;;;;;26.52;38.79;99714.31;5054453;28;20135;-77
2022/05/20 09:34:33;;;;;;;8.65;5.20;;;;;;;26.50;37.06;99704.69;5055957;28;20056;-82
2022/05/20 09:37:02;;;;;;;10.15;4.70;;;;;;;26.50;36.18;99705.47;5052411;28;20052;-81
2022/05/20 09:39:31;;;;;;;10.10;4.50;;;;;;;26.56;36.83;99695.44;5060462;28;20029;-76
2022/05/20 09:42:04;;;;;;;6.75;3.65;;;;;;;26.61;36.56;99686.59;5057166;28;20127;-76
2022/05/20 09:44:38;;;;;;;6.20;3.13;;;;;;;26.67;37.12;99680.56;5042353;28;20060;-75
2022/05/20 09:47:06;;;;;;;4.82;2.72;;;;;;;26.62;37.22;99687.41;5061674;28;20453;-76
2022/05/20 09:49:47;;;;;;;8.80;2.90;;;;;;;26.54;37.49;99686.63;5058584;28;20032;-75
2022/05/20 09:52:26;;;;;;;5.15;2.78;;;;;;;26.52;38.16;99689.06;5056288;28;20053;-76
2022/05/20 09:55:04;;;;;;;5.22;2.83;;;;;;;26.51;38.01;99687.47;5040227;28;20049;-76
2022/05/20 09:57:39;;;;;;;7.07;2.22;;;;;;;26.58;37.72;99676.22;5053004;28;20037;-74
2022/05/20 10:00:05;;;;;;;4.82;2.13;;;;;;;26.60;38.08;99678.59;5047096;28;20413;-71
2022/05/20 10:03:12;;;;;;;3.85;2.30;;;;;;;26.63;37.75;99682.59;5059239;28;20041;-70
2022/05/20 10:05:41;;;;;;;3.25;1.88;;;;;;;26.67;37.90;99677.78;4972090;28;20053;-64
2022/05/20 10:08:15;;;;;;;5.55;1.92;;;;;;;26.72;37.62;99677.31;4988457;28;20046;-64
2022/05/20 10:10:43;;;;;;;2.90;1.73;;;;;;;26.77;37.68;99672.09;4989521;28;20069;-64
2022/05/20 10:13:27;;;;;;;3.75;1.65;;;;;;;26.77;38.06;99666.47;4996336;28;20683;-64
2022/05/20 10:16:17;;;;;;;6.45;1.65;;;;;;;26.77;37.70;99652.44;5000266;28;20099;-70
2022/05/20 10:18:46;;;;;;;5.22;2.25;;;;;;;26.74;37.80;99656.06;4979334;28;20053;-71
2022/05/20 10:21:39;;;;;;;4.00;1.80;;;;;;;26.77;37.78;99663.66;4979730;28;20041;-71
2022/05/20 10:24:28;;;;;;;3.30;1.50;;;;;;;26.74;37.68;99652.47;4999162;28;20140;-72
2022/05/20 10:27:01;;;;;;;3.47;1.50;;;;;;;26.71;38.07;99656.09;4979810;28;20046;-64
2022/05/20 10:32:36;;;;;;;2.85;1.50;;;;;;;26.66;37.85;99648.91;5000200;28;20069;-71
2022/05/20 10:35:20;;;;;;;2.72;1.20;;;;;;;26.59;37.72;99641.34;4992903;28;20529;-71
2022/05/20 10:37:54;;;;;;;2.45;1.38;;;;;;;26.62;37.51;99642.50;4988823;28;20070;-70
2022/05/20 10:40:38;;;;;;;2.45;1.40;;;;;;;26.60;37.76;99634.50;5007789;28;20046;-71
2022/05/20 10:43:18;;;;;;;1.90;1.05;;;;;;;26.63;37.24;99621.66;5034400;28;20132;-71
2022/05/20 10:49:00;;;;;;;3.45;1.20;;;;;;;26.64;37.17;99623.25;5065254;28;20421;-83
2022/05/20 10:51:32;;;;;;;2.50;1.10;;;;;;;26.69;36.80;99620.03;5063429;28;20127;-84
2022/05/20 10:54:06;;;;;;;2.13;1.20;;;;;;;26.61;36.74;99605.25;5060869;28;20041;-84
2022/05/20 10:56:39;;;;;;;1.45;1.00;;;;;;;26.68;36.60;99614.81;5048225;28;20135;-83
2022/05/20 10:59:42;;;;;;;4.97;1.15;;;;;;;26.66;36.45;99606.81;5051067;28;20091;-84
2022/05/20 11:02:45;;;;;;;2.15;1.10;;;;;;;26.65;36.31;99616.47;5058754;28;20033;-72
2022/05/20 11:05:58;;;;;;;3.15;1.10;;;;;;;26.68;36.12;99606.41;5036131;28;20059;-73
2022/05/20 11:08:51;;;;;;;2.03;0.93;;;;;;;26.67;36.17;99610.44;5049394;28;20052;-65
2022/05/20 11:11:35;;;;;;;2.50;1.15;;;;;;;26.64;36.00;99592.38;5062049;28;20049;-66
2022/05/20 11:14:01;;;;;;;2.72;0.80;;;;;;;26.64;36.04;99591.59;5064677;28;20519;-65
2022/05/20 11:16:51;;;;;;;1.48;0.95;;;;;;;26.67;35.93;99600.00;5067067;28;20546;-65
2022/05/20 11:19:16;;;;;;;1.38;0.90;;;;;;;26.73;35.98;99589.16;5058668;28;20053;-65
2022/05/20 11:21:58;;;;;;;1.65;0.85;;;;;;;26.68;36.05;99587.56;5061486;28;20036;-65
2022/05/20 11:25:01;;;;;;;2.88;0.95;;;;;;;26.73;35.78;99598.34;5067155;28;20064;-66
2022/05/20 11:27:55;;;;;;;1.33;0.90;;;;;;;26.73;36.06;99589.94;5049628;28;20045;-65
2022/05/20 11:30:44;;;;;;;2.63;1.02;;;;;;;26.73;35.98;99584.31;5055506;28;20402;-65
2022/05/20 11:33:12;;;;;;;2.08;1.10;;;;;;;26.68;35.84;99584.75;5055414;28;20151;-65
2022/05/20 11:35:55;;;;;;;2.22;0.85;;;;;;;26.67;36.37;99577.56;5061118;28;20470;-65
2022/05/20 11:39:08;;;;;;;3.03;0.85;;;;;;;26.72;36.36;99571.50;5051587;28;21571;-65
2022/05/20 11:41:52;;;;;;;2.40;0.82;;;;;;;26.76;36.03;99577.88;4992776;28;20457;-71
2022/05/20 11:44:37;;;;;;;2.25;0.80;;;;;;;26.69;36.65;99575.13;5000657;28;20050;-72
2022/05/20 11:47:05;;;;;;;6.38;1.20;;;;;;;26.70;36.59;99573.91;5003427;28;20088;-72
2022/05/20 11:50:01;;;;;;;2.50;1.05;;;;;;;26.67;36.15;99563.53;5004258;28;20064;-65
2022/05/20 11:52:47;;;;;;;2.25;1.00;;;;;;;26.65;36.32;99574.38;4998612;28;20049;-65
2022/05/20 11:55:21;;;;;;;5.07;1.33;;;;;;;26.63;36.88;99575.97;5005070;28;20100;-66
2022/05/20 11:57:52;;;;;;;14.25;1.42;;;;;;;26.71;36.51;99572.69;4981904;28;20050;-65
2022/05/20 12:00:21;;;;;;;7.38;1.10;;;;;;;26.70;36.25;99573.91;4994516;28;20106;-65
2022/05/20 12:02:55;;;;;;;4.60;0.90;;;;;;;26.76;35.94;99569.47;4982099;28;20050;-66
2022/05/20 12:05:24;;;;;;;2.50;1.05;;;;;;;26.78;36.29;99578.25;4976209;28;20610;-65
2022/05/20 12:07:50;;;;;;;7.03;1.00;;;;;;;26.75;35.79;99562.25;4998493;28;20046;-65
2022/05/20 12:10:46;;;;;;;2.55;0.95;;;;;;;26.79;35.70;99577.06;5004192;28;20123;-66
2022/05/20 12:13:26;;;;;;;7.75;1.00;;;;;;;26.79;35.77;99567.81;5001388;28;20619;-65
2022/05/20 12:16:13;;;;;;;4.22;0.90;;;;;;;26.79;35.92;99574.28;5027946;28;20044;-65
2022/05/20 12:24:32;;;;;;;1.83;0.80;;;;;;;26.76;36.00;99561.03;5055256;28;20459;-66
2022/05/20 12:26:59;;;;;;;1.88;0.80;;;;;;;26.78;35.65;99560.63;5048775;28;20049;-64
2022/05/20 12:29:37;;;;;;;3.95;0.93;;;;;;;26.74;36.24;99569.09;5051637;28;20048;-65